sensor_id;sensor_type;location;lat;lon;timestamp;pressure;altitude;pressure_sealevel;temperature;humidity
73748;BME280;62056;52.130;5.428;2022-12-29T00:01:55;100162.13;;;10.45;88.77
73748;BME280;62056;52.130;5.428;2022-12-29T00:04:22;100164.19;;;10.48;87.93
73748;BME280;62056;52.130;5.428;2022-12-29T00:06:48;100152.19;;;10.50;87.81
73748;BME280;62056;52.130;5.428;2022-12-29T00:09:16;100140.16;;;10.53;87.68
73748;BME280;62056;52.130;5.428;2022-12-29T00:11:42;100145.94;;;10.55;88.23
73748;BME280;62056;52.130;5.428;2022-12-29T00:14:10;100148.31;;;10.57;87.74
73748;BME280;62056;52.130;5.428;2022-12-29T00:16:56;100144.56;;;10.58;87.49
73748;BME280;62056;52.130;5.428;2022-12-29T00:19:23;100145.03;;;10.60;88.17
73748;BME280;62056;52.130;5.428;2022-12-29T00:22:13;100135.66;;;10.62;87.61
73748;BME280;62056;52.130;5.428;2022-12-29T00:24:59;100135.84;;;10.66;87.18
73748;BME280;62056;52.130;5.428;2022-12-29T00:27:28;100109.25;;;10.66;87.36
73748;BME280;62056;52.130;5.428;2022-12-29T00:30:17;100121.97;;;10.69;87.09
73748;BME280;62056;52.130;5.428;2022-12-29T00:33:15;100119.78;;;10.71;86.33
73748;BME280;62056;52.130;5.428;2022-12-29T00:36:08;100118.97;;;10.70;86.67
73748;BME280;62056;52.130;5.428;2022-12-29T00:38:37;100111.81;;;10.71;87.04
73748;BME280;62056;52.130;5.428;2022-12-29T00:41:22;100112.28;;;10.73;87.28
73748;BME280;62056;52.130;5.428;2022-12-29T00:44:12;100098.19;;;10.72;87.39
73748;BME280;62056;52.130;5.428;2022-12-29T00:46:41;100107.44;;;10.75;86.43
73748;BME280;62056;52.130;5.428;2022-12-29T00:49:10;100103.97;;;10.74;86.69
73748;BME280;62056;52.130;5.428;2022-12-29T00:51:57;100086.94;;;10.76;86.26
73748;BME280;62056;52.130;5.428;2022-12-29T00:54:24;100068.03;;;10.77;87.21
73748;BME280;62056;52.130;5.428;2022-12-29T00:56:52;100081.34;;;10.77;86.21
73748;BME280;62056;52.130;5.428;2022-12-29T00:59:19;100076.78;;;10.78;86.82
73748;BME280;62056;52.130;5.428;2022-12-29T01:01:47;100073.03;;;10.79;86.95
73748;BME280;62056;52.130;5.428;2022-12-29T01:04:14;100062.72;;;10.77;87.35
73748;BME280;62056;52.130;5.428;2022-12-29T01:06:41;100061.63;;;10.78;87.37
73748;BME280;62056;52.130;5.428;2022-12-29T01:09:08;100058.97;;;10.78;86.99
73748;BME280;62056;52.130;5.428;2022-12-29T01:11:54;100058.19;;;10.78;86.59
73748;BME280;62056;52.130;5.428;2022-12-29T01:14:22;100054.75;;;10.77;86.66
73748;BME280;62056;52.130;5.428;2022-12-29T01:16:49;100050.50;;;10.76;87.12
73748;BME280;62056;52.130;5.428;2022-12-29T01:19:17;100052.69;;;10.74;87.24
73748;BME280;62056;52.130;5.428;2022-12-29T01:21:45;100049.53;;;10.72;87.13
73748;BME280;62056;52.130;5.428;2022-12-29T01:24:12;100044.38;;;10.67;87.64
73748;BME280;62056;52.130;5.428;2022-12-29T01:26:39;100051.06;;;10.64;87.55
73748;BME280;62056;52.130;5.428;2022-12-29T01:29:06;100040.88;;;10.58;88.11
73748;BME280;62056;52.130;5.428;2022-12-29T01:31:32;100047.09;;;10.53;87.83
73748;BME280;62056;52.130;5.428;2022-12-29T01:33:59;100049.91;;;10.48;88.31
73748;BME280;62056;52.130;5.428;2022-12-29T01:36:26;100040.97;;;10.44;88.24
73748;BME280;62056;52.130;5.428;2022-12-29T01:38:52;100023.25;;;10.39;88.57
73748;BME280;62056;52.130;5.428;2022-12-29T01:41:19;100040.59;;;10.37;88.58
73748;BME280;62056;52.130;5.428;2022-12-29T01:49:05;100042.91;;;10.29;88.70
73748;BME280;62056;52.130;5.428;2022-12-29T01:51:43;100051.72;;;10.25;88.75
73748;BME280;62056;52.130;5.428;2022-12-29T01:54:16;100047.22;;;10.25;88.44
73748;BME280;62056;52.130;5.428;2022-12-29T01:56:46;100039.56;;;10.24;89.41
73748;BME280;62056;52.130;5.428;2022-12-29T01:59:19;100065.63;;;10.22;89.24
73748;BME280;62056;52.130;5.428;2022-12-29T02:01:48;100061.09;;;10.22;88.68
73748;BME280;62056;52.130;5.428;2022-12-29T02:04:16;100057.38;;;10.23;89.35
73748;BME280;62056;52.130;5.428;2022-12-29T02:06:49;100062.97;;;10.22;89.54
73748;BME280;62056;52.130;5.428;2022-12-29T02:09:17;100069.84;;;10.23;88.94
73748;BME280;62056;52.130;5.428;2022-12-29T02:11:44;100053.41;;;10.21;88.70
73748;BME280;62056;52.130;5.428;2022-12-29T02:14:13;100050.00;;;10.20;88.79
73748;BME280;62056;52.130;5.428;2022-12-29T02:17:00;100052.34;;;10.22;89.44
73748;BME280;62056;52.130;5.428;2022-12-29T02:19:51;100065.34;;;10.23;89.67
73748;BME280;62056;52.130;5.428;2022-12-29T02:22:35;100072.50;;;10.23;89.04
73748;BME280;62056;52.130;5.428;2022-12-29T02:28:47;100068.00;;;10.23;89.08
73748;BME280;62056;52.130;5.428;2022-12-29T02:34:23;100069.84;;;10.23;88.91
73748;BME280;62056;52.130;5.428;2022-12-29T02:37:19;100068.47;;;10.25;89.14
73748;BME280;62056;52.130;5.428;2022-12-29T02:40:13;100042.97;;;10.24;88.49
73748;BME280;62056;52.130;5.428;2022-12-29T02:45:55;100048.59;;;10.23;88.75
73748;BME280;62056;52.130;5.428;2022-12-29T02:51:03;100045.94;;;10.23;87.76
73748;BME280;62056;52.130;5.428;2022-12-29T02:53:34;100053.13;;;10.22;88.24
73748;BME280;62056;52.130;5.428;2022-12-29T02:56:21;100051.25;;;10.23;88.29
73748;BME280;62056;52.130;5.428;2022-12-29T02:58:47;100046.75;;;10.23;87.82
73748;BME280;62056;52.130;5.428;2022-12-29T03:01:42;100044.09;;;10.23;88.22
73748;BME280;62056;52.130;5.428;2022-12-29T03:05:15;100044.88;;;10.24;88.20
73748;BME280;62056;52.130;5.428;2022-12-29T03:07:47;100061.38;;;10.21;88.47
73748;BME280;62056;52.130;5.428;2022-12-29T03:10:37;100059.53;;;10.21;88.39
73748;BME280;62056;52.130;5.428;2022-12-29T03:13:23;100064.38;;;10.19;88.62
73748;BME280;62056;52.130;5.428;2022-12-29T03:16:20;100052.16;;;10.18;88.49
73748;BME280;62056;52.130;5.428;2022-12-29T03:18:58;100052.47;;;10.17;88.23
73748;BME280;62056;52.130;5.428;2022-12-29T03:21:36;100054.03;;;10.18;88.57
73748;BME280;62056;52.130;5.428;2022-12-29T03:24:27;100057.81;;;10.17;88.55
73748;BME280;62056;52.130;5.428;2022-12-29T03:26:58;100037.31;;;10.17;88.37
73748;BME280;62056;52.130;5.428;2022-12-29T03:29:26;100053.25;;;10.17;88.27
73748;BME280;62056;52.130;5.428;2022-12-29T03:31:55;100016.06;;;10.17;88.51
73748;BME280;62056;52.130;5.428;2022-12-29T03:34:23;100033.06;;;10.16;88.14
73748;BME280;62056;52.130;5.428;2022-12-29T03:36:58;100030.75;;;10.15;88.05
73748;BME280;62056;52.130;5.428;2022-12-29T03:39:26;100029.16;;;10.13;88.34
73748;BME280;62056;52.130;5.428;2022-12-29T03:41:58;100038.53;;;10.11;88.15
73748;BME280;62056;52.130;5.428;2022-12-29T03:44:35;100038.81;;;10.09;87.64
73748;BME280;62056;52.130;5.428;2022-12-29T03:47:03;100039.13;;;10.08;87.57
73748;BME280;62056;52.130;5.428;2022-12-29T03:49:30;100024.56;;;10.05;88.64
73748;BME280;62056;52.130;5.428;2022-12-29T03:51:56;100033.31;;;10.06;87.99
73748;BME280;62056;52.130;5.428;2022-12-29T03:54:23;100042.09;;;10.06;88.00
73748;BME280;62056;52.130;5.428;2022-12-29T03:56:50;100033.66;;;10.04;87.82
73748;BME280;62056;52.130;5.428;2022-12-29T03:59:17;100041.13;;;10.02;87.27
73748;BME280;62056;52.130;5.428;2022-12-29T04:01:44;100039.53;;;10.01;87.83
73748;BME280;62056;52.130;5.428;2022-12-29T04:04:10;100022.34;;;9.99;87.46
73748;BME280;62056;52.130;5.428;2022-12-29T04:06:37;100034.84;;;9.98;86.97
73748;BME280;62056;52.130;5.428;2022-12-29T04:09:03;100030.91;;;9.96;88.05
73748;BME280;62056;52.130;5.428;2022-12-29T04:11:30;100035.72;;;9.93;87.79
73748;BME280;62056;52.130;5.428;2022-12-29T04:13:59;100041.34;;;9.92;87.74
73748;BME280;62056;52.130;5.428;2022-12-29T04:16:26;100042.72;;;9.89;87.96
73748;BME280;62056;52.130;5.428;2022-12-29T04:18:53;100035.56;;;9.90;87.74
73748;BME280;62056;52.130;5.428;2022-12-29T04:21:19;100050.41;;;9.91;87.76
73748;BME280;62056;52.130;5.428;2022-12-29T04:23:46;100059.47;;;9.90;88.30
73748;BME280;62056;52.130;5.428;2022-12-29T04:26:13;100061.78;;;9.91;87.48
73748;BME280;62056;52.130;5.428;2022-12-29T04:28:40;100065.75;;;9.94;87.39
73748;BME280;62056;52.130;5.428;2022-12-29T04:31:06;100061.22;;;9.95;86.53
73748;BME280;62056;52.130;5.428;2022-12-29T04:33:33;100069.19;;;9.95;87.36
73748;BME280;62056;52.130;5.428;2022-12-29T04:36:00;100056.69;;;9.95;86.16
73748;BME280;62056;52.130;5.428;2022-12-29T04:38:27;100067.31;;;9.95;87.16
73748;BME280;62056;52.130;5.428;2022-12-29T04:40:54;100067.00;;;9.97;87.27
73748;BME280;62056;52.130;5.428;2022-12-29T04:43:20;100072.03;;;9.98;85.98
73748;BME280;62056;52.130;5.428;2022-12-29T04:45:48;100080.00;;;9.98;87.34
73748;BME280;62056;52.130;5.428;2022-12-29T04:48:15;100084.69;;;10.01;85.88
73748;BME280;62056;52.130;5.428;2022-12-29T04:50:43;100080.47;;;10.00;87.02
73748;BME280;62056;52.130;5.428;2022-12-29T04:53:10;100085.59;;;9.97;87.14
73748;BME280;62056;52.130;5.428;2022-12-29T04:55:37;100083.44;;;9.99;86.44
73748;BME280;62056;52.130;5.428;2022-12-29T04:58:03;100078.69;;;9.96;86.61
73748;BME280;62056;52.130;5.428;2022-12-29T05:00:30;100077.16;;;9.95;86.78
73748;BME280;62056;52.130;5.428;2022-12-29T05:02:57;100084.00;;;9.96;86.09
73748;BME280;62056;52.130;5.428;2022-12-29T05:05:24;100081.69;;;9.94;86.54
73748;BME280;62056;52.130;5.428;2022-12-29T05:07:51;100090.44;;;9.95;86.05
73748;BME280;62056;52.130;5.428;2022-12-29T05:10:17;100101.06;;;9.95;86.20
73748;BME280;62056;52.130;5.428;2022-12-29T05:12:44;100106.38;;;9.95;85.31
73748;BME280;62056;52.130;5.428;2022-12-29T05:15:11;100098.41;;;9.95;86.21
73748;BME280;62056;52.130;5.428;2022-12-29T05:17:38;100104.78;;;9.93;85.81
73748;BME280;62056;52.130;5.428;2022-12-29T05:20:05;100109.31;;;9.93;84.20
73748;BME280;62056;52.130;5.428;2022-12-29T05:22:34;100101.06;;;9.95;85.32
73748;BME280;62056;52.130;5.428;2022-12-29T05:25:00;100103.22;;;9.92;85.15
73748;BME280;62056;52.130;5.428;2022-12-29T05:27:27;100104.28;;;9.91;85.46
73748;BME280;62056;52.130;5.428;2022-12-29T05:29:54;100108.03;;;9.90;84.86
73748;BME280;62056;52.130;5.428;2022-12-29T05:32:20;100108.03;;;9.90;84.62
73748;BME280;62056;52.130;5.428;2022-12-29T05:34:47;100123.19;;;9.90;84.76
73748;BME280;62056;52.130;5.428;2022-12-29T05:37:13;100115.22;;;9.90;84.26
73748;BME280;62056;52.130;5.428;2022-12-29T05:39:40;100094.00;;;9.90;84.78
73748;BME280;62056;52.130;5.428;2022-12-29T05:42:07;100110.69;;;9.90;84.22
73748;BME280;62056;52.130;5.428;2022-12-29T05:44:36;100111.47;;;9.91;84.98
73748;BME280;62056;52.130;5.428;2022-12-29T05:47:03;100102.25;;;9.88;83.89
73748;BME280;62056;52.130;5.428;2022-12-29T05:49:29;100095.84;;;9.89;84.55
73748;BME280;62056;52.130;5.428;2022-12-29T05:51:56;100102.72;;;9.90;84.16
73748;BME280;62056;52.130;5.428;2022-12-29T05:54:23;100103.03;;;9.89;84.53
73748;BME280;62056;52.130;5.428;2022-12-29T05:56:49;100117.41;;;9.88;84.33
73748;BME280;62056;52.130;5.428;2022-12-29T05:59:16;100127.72;;;9.89;84.16
73748;BME280;62056;52.130;5.428;2022-12-29T06:01:42;100122.72;;;9.88;84.56
73748;BME280;62056;52.130;5.428;2022-12-29T06:04:10;100131.47;;;9.88;83.99
73748;BME280;62056;52.130;5.428;2022-12-29T06:06:37;100130.97;;;9.86;84.55
73748;BME280;62056;52.130;5.428;2022-12-29T06:09:05;100127.22;;;9.87;84.19
73748;BME280;62056;52.130;5.428;2022-12-29T06:11:32;100145.03;;;9.87;84.37
73748;BME280;62056;52.130;5.428;2022-12-29T06:13:58;100142.66;;;9.85;82.33
73748;BME280;62056;52.130;5.428;2022-12-29T06:16:25;100149.34;;;9.83;84.21
73748;BME280;62056;52.130;5.428;2022-12-29T06:18:52;100143.38;;;9.77;83.54
73748;BME280;62056;52.130;5.428;2022-12-29T06:21:18;100140.53;;;9.73;84.55
73748;BME280;62056;52.130;5.428;2022-12-29T06:23:45;100140.34;;;9.70;84.84
73748;BME280;62056;52.130;5.428;2022-12-29T06:26:12;100142.78;;;9.66;84.65
73748;BME280;62056;52.130;5.428;2022-12-29T06:28:39;100145.75;;;9.65;84.56
73748;BME280;62056;52.130;5.428;2022-12-29T06:31:09;100149.28;;;9.60;84.29
73748;BME280;62056;52.130;5.428;2022-12-29T06:33:37;100151.56;;;9.53;84.41
73748;BME280;62056;52.130;5.428;2022-12-29T06:36:04;100156.66;;;9.49;85.01
73748;BME280;62056;52.130;5.428;2022-12-29T06:38:30;100183.31;;;9.44;84.30
73748;BME280;62056;52.130;5.428;2022-12-29T06:40:57;100175.91;;;9.41;84.54
73748;BME280;62056;52.130;5.428;2022-12-29T06:43:24;100161.66;;;9.37;85.07
73748;BME280;62056;52.130;5.428;2022-12-29T06:45:50;100172.59;;;9.36;84.41
73748;BME280;62056;52.130;5.428;2022-12-29T06:48:17;100166.28;;;9.31;85.20
73748;BME280;62056;52.130;5.428;2022-12-29T06:50:44;100171.88;;;9.30;84.29
73748;BME280;62056;52.130;5.428;2022-12-29T06:53:10;100165.00;;;9.29;85.33
73748;BME280;62056;52.130;5.428;2022-12-29T06:55:37;100172.19;;;9.28;84.82
73748;BME280;62056;52.130;5.428;2022-12-29T06:58:03;100168.75;;;9.28;84.90
73748;BME280;62056;52.130;5.428;2022-12-29T07:00:30;100161.56;;;9.28;84.63
73748;BME280;62056;52.130;5.428;2022-12-29T07:02:56;100165.97;;;9.33;82.85
73748;BME280;62056;52.130;5.428;2022-12-29T07:05:25;100175.81;;;9.32;84.48
73748;BME280;62056;52.130;5.428;2022-12-29T07:07:54;100171.78;;;9.35;84.13
73748;BME280;62056;52.130;5.428;2022-12-29T07:10:21;100184.28;;;9.35;83.94
73748;BME280;62056;52.130;5.428;2022-12-29T07:12:48;100188.03;;;9.34;83.97
73748;BME280;62056;52.130;5.428;2022-12-29T07:15:15;100170.63;;;9.27;83.81
73748;BME280;62056;52.130;5.428;2022-12-29T07:17:41;100170.97;;;9.21;84.33
73748;BME280;62056;52.130;5.428;2022-12-29T07:20:09;100179.31;;;9.14;84.27
73748;BME280;62056;52.130;5.428;2022-12-29T07:22:36;100177.56;;;9.09;84.64
73748;BME280;62056;52.130;5.428;2022-12-29T07:25:02;100185.59;;;9.04;84.92
73748;BME280;62056;52.130;5.428;2022-12-29T07:27:29;100190.19;;;8.99;83.93
73748;BME280;62056;52.130;5.428;2022-12-29T07:29:56;100183.13;;;8.94;84.25
73748;BME280;62056;52.130;5.428;2022-12-29T07:32:22;100186.63;;;8.89;85.00
73748;BME280;62056;52.130;5.428;2022-12-29T07:34:49;100197.22;;;8.89;84.68
73748;BME280;62056;52.130;5.428;2022-12-29T07:37:16;100207.84;;;8.89;85.22
73748;BME280;62056;52.130;5.428;2022-12-29T07:39:42;100209.44;;;8.90;85.86
73748;BME280;62056;52.130;5.428;2022-12-29T07:42:09;100213.34;;;8.93;85.82
73748;BME280;62056;52.130;5.428;2022-12-29T07:44:36;100204.84;;;8.96;86.19
73748;BME280;62056;52.130;5.428;2022-12-29T07:47:03;100199.94;;;9.03;86.29
73748;BME280;62056;52.130;5.428;2022-12-29T07:49:29;100199.88;;;9.08;87.36
73748;BME280;62056;52.130;5.428;2022-12-29T07:51:56;100206.34;;;9.16;87.01
73748;BME280;62056;52.130;5.428;2022-12-29T07:54:22;100208.94;;;9.21;86.81
73748;BME280;62056;52.130;5.428;2022-12-29T07:56:50;100203.22;;;9.28;86.62
73748;BME280;62056;52.130;5.428;2022-12-29T07:59:17;100206.78;;;9.37;87.98
73748;BME280;62056;52.130;5.428;2022-12-29T08:01:43;100207.97;;;9.45;86.58
73748;BME280;62056;52.130;5.428;2022-12-29T08:04:12;100211.00;;;9.52;87.26
73748;BME280;62056;52.130;5.428;2022-12-29T08:06:38;100212.50;;;9.58;87.58
73748;BME280;62056;52.130;5.428;2022-12-29T08:09:05;100205.50;;;9.62;87.76
73748;BME280;62056;52.130;5.428;2022-12-29T08:11:43;100194.53;;;9.69;87.89
73748;BME280;62056;52.130;5.428;2022-12-29T08:14:10;100190.50;;;9.71;85.13
73748;BME280;62056;52.130;5.428;2022-12-29T08:16:37;100194.81;;;9.81;87.82
73748;BME280;62056;52.130;5.428;2022-12-29T08:19:03;100182.81;;;9.84;83.95
73748;BME280;62056;52.130;5.428;2022-12-29T08:21:31;100178.84;;;9.95;87.54
73748;BME280;62056;52.130;5.428;2022-12-29T08:23:58;100180.63;;;10.00;85.99
73748;BME280;62056;52.130;5.428;2022-12-29T08:26:25;100182.88;;;10.06;87.19
73748;BME280;62056;52.130;5.428;2022-12-29T08:28:53;100182.00;;;10.11;86.53
73748;BME280;62056;52.130;5.428;2022-12-29T08:31:20;100182.47;;;10.13;84.95
73748;BME280;62056;52.130;5.428;2022-12-29T08:33:47;100190.66;;;10.17;85.76
73748;BME280;62056;52.130;5.428;2022-12-29T08:36:14;100189.13;;;10.24;85.77
73748;BME280;62056;52.130;5.428;2022-12-29T08:38:40;100194.16;;;10.26;83.32
73748;BME280;62056;52.130;5.428;2022-12-29T08:41:07;100197.53;;;10.31;84.75
73748;BME280;62056;52.130;5.428;2022-12-29T08:43:34;100189.13;;;10.38;84.79
73748;BME280;62056;52.130;5.428;2022-12-29T08:46:00;100180.25;;;10.43;85.23
73748;BME280;62056;52.130;5.428;2022-12-29T08:48:27;100199.34;;;10.45;81.32
73748;BME280;62056;52.130;5.428;2022-12-29T08:50:54;100203.28;;;10.47;81.07
73748;BME280;62056;52.130;5.428;2022-12-29T08:53:21;100194.72;;;10.50;83.18
73748;BME280;62056;52.130;5.428;2022-12-29T08:55:58;100201.00;;;10.55;80.23
73748;BME280;62056;52.130;5.428;2022-12-29T08:58:31;100204.72;;;10.53;83.12
73748;BME280;62056;52.130;5.428;2022-12-29T09:00:58;100209.75;;;10.55;83.74
73748;BME280;62056;52.130;5.428;2022-12-29T09:03:25;100216.13;;;10.54;83.78
73748;BME280;62056;52.130;5.428;2022-12-29T09:06:13;100211.31;;;10.56;84.82
73748;BME280;62056;52.130;5.428;2022-12-29T09:08:40;100213.38;;;10.59;83.96
73748;BME280;62056;52.130;5.428;2022-12-29T09:11:18;100209.13;;;10.58;83.05
73748;BME280;62056;52.130;5.428;2022-12-29T09:13:45;100214.66;;;10.62;83.08
73748;BME280;62056;52.130;5.428;2022-12-29T09:16:12;100212.28;;;10.60;80.02
73748;BME280;62056;52.130;5.428;2022-12-29T09:18:39;100212.19;;;10.65;83.16
73748;BME280;62056;52.130;5.428;2022-12-29T09:21:06;100219.38;;;10.65;82.76
73748;BME280;62056;52.130;5.428;2022-12-29T09:23:34;100232.66;;;10.65;83.23
73748;BME280;62056;52.130;5.428;2022-12-29T09:26:01;100228.31;;;10.69;83.41
73748;BME280;62056;52.130;5.428;2022-12-29T09:28:28;100236.09;;;10.65;83.05
73748;BME280;62056;52.130;5.428;2022-12-29T09:30:56;100239.25;;;10.67;82.00
73748;BME280;62056;52.130;5.428;2022-12-29T09:33:24;100236.59;;;10.67;82.98
73748;BME280;62056;52.130;5.428;2022-12-29T09:35:58;100255.50;;;10.66;82.77
73748;BME280;62056;52.130;5.428;2022-12-29T09:38:26;100264.38;;;10.61;83.28
73748;BME280;62056;52.130;5.428;2022-12-29T09:40:57;100257.31;;;10.57;83.04
73748;BME280;62056;52.130;5.428;2022-12-29T09:44:04;100282.44;;;10.50;83.55
73748;BME280;62056;52.130;5.428;2022-12-29T09:46:44;100284.41;;;10.45;83.39
73748;BME280;62056;52.130;5.428;2022-12-29T09:49:48;100269.06;;;10.42;83.73
73748;BME280;62056;52.130;5.428;2022-12-29T09:52:23;100296.84;;;10.36;84.21
73748;BME280;62056;52.130;5.428;2022-12-29T10:00:13;100301.53;;;10.25;84.37
73748;BME280;62056;52.130;5.428;2022-12-29T10:02:44;100295.72;;;10.23;84.57
73748;BME280;62056;52.130;5.428;2022-12-29T10:05:29;100307.16;;;10.23;84.81
73748;BME280;62056;52.130;5.428;2022-12-29T10:11:31;100308.41;;;10.12;83.67
73748;BME280;62056;52.130;5.428;2022-12-29T10:14:47;100324.06;;;10.13;84.34
73748;BME280;62056;52.130;5.428;2022-12-29T10:23:35;100332.41;;;10.21;85.34
73748;BME280;62056;52.130;5.428;2022-12-29T10:26:10;100325.84;;;10.18;85.44
73748;BME280;62056;52.130;5.428;2022-12-29T10:29:06;100347.88;;;10.19;84.91
73748;BME280;62056;52.130;5.428;2022-12-29T10:31:52;100345.22;;;10.19;85.94
73748;BME280;62056;52.130;5.428;2022-12-29T10:34:37;100348.38;;;10.21;85.04
73748;BME280;62056;52.130;5.428;2022-12-29T10:37:29;100352.31;;;10.23;85.59
73748;BME280;62056;52.130;5.428;2022-12-29T10:40:09;100347.28;;;10.22;85.38
73748;BME280;62056;52.130;5.428;2022-12-29T10:42:50;100364.31;;;10.21;85.09
73748;BME280;62056;52.130;5.428;2022-12-29T10:45:18;100360.47;;;10.27;85.41
73748;BME280;62056;52.130;5.428;2022-12-29T10:47:57;100361.28;;;10.27;85.15
73748;BME280;62056;52.130;5.428;2022-12-29T10:50:27;100377.81;;;10.24;84.00
73748;BME280;62056;52.130;5.428;2022-12-29T10:52:58;100381.97;;;10.30;85.78
73748;BME280;62056;52.130;5.428;2022-12-29T10:55:32;100390.94;;;10.35;85.53
73748;BME280;62056;52.130;5.428;2022-12-29T10:58:01;100402.66;;;10.33;85.63
73748;BME280;62056;52.130;5.428;2022-12-29T11:00:32;100400.78;;;10.34;85.08
73748;BME280;62056;52.130;5.428;2022-12-29T11:06:15;100417.22;;;10.36;86.02
73748;BME280;62056;52.130;5.428;2022-12-29T11:08:55;100417.31;;;10.31;85.25
73748;BME280;62056;52.130;5.428;2022-12-29T11:11:36;100432.19;;;10.32;85.99
73748;BME280;62056;52.130;5.428;2022-12-29T11:14:13;100437.69;;;10.36;85.52
73748;BME280;62056;52.130;5.428;2022-12-29T11:16:41;100439.66;;;10.30;85.32
73748;BME280;62056;52.130;5.428;2022-12-29T11:19:22;100433.25;;;10.31;85.84
73748;BME280;62056;52.130;5.428;2022-12-29T11:21:50;100450.78;;;10.32;85.83
73748;BME280;62056;52.130;5.428;2022-12-29T11:24:25;100443.19;;;10.39;86.05
73748;BME280;62056;52.130;5.428;2022-12-29T11:26:54;100454.03;;;10.43;86.19
73748;BME280;62056;52.130;5.428;2022-12-29T11:32:20;100452.88;;;10.49;85.40
73748;BME280;62056;52.130;5.428;2022-12-29T11:34:53;100432.38;;;10.49;85.25
73748;BME280;62056;52.130;5.428;2022-12-29T11:39:59;100470.31;;;10.55;85.17
73748;BME280;62056;52.130;5.428;2022-12-29T11:42:37;100465.28;;;10.53;84.28
73748;BME280;62056;52.130;5.428;2022-12-29T11:45:20;100468.44;;;10.56;85.16
73748;BME280;62056;52.130;5.428;2022-12-29T11:47:50;100460.25;;;10.52;84.46
73748;BME280;62056;52.130;5.428;2022-12-29T11:50:21;100467.75;;;10.50;84.84
73748;BME280;62056;52.130;5.428;2022-12-29T11:52:50;100478.84;;;10.52;84.56
73748;BME280;62056;52.130;5.428;2022-12-29T11:55:25;100477.28;;;10.51;84.54
73748;BME280;62056;52.130;5.428;2022-12-29T11:57:54;100484.66;;;10.54;84.40
73748;BME280;62056;52.130;5.428;2022-12-29T12:00:23;100485.97;;;10.57;83.88
73748;BME280;62056;52.130;5.428;2022-12-29T12:03:03;100483.59;;;10.55;84.33
73748;BME280;62056;52.130;5.428;2022-12-29T12:05:52;100477.50;;;10.55;84.36
73748;BME280;62056;52.130;5.428;2022-12-29T12:08:35;100484.97;;;10.52;83.93
73748;BME280;62056;52.130;5.428;2022-12-29T12:11:32;100486.03;;;10.51;82.65
73748;BME280;62056;52.130;5.428;2022-12-29T12:14:15;100492.63;;;10.54;83.57
73748;BME280;62056;52.130;5.428;2022-12-29T12:17:03;100504.88;;;10.55;84.21
73748;BME280;62056;52.130;5.428;2022-12-29T12:19:34;100496.56;;;10.43;83.92
73748;BME280;62056;52.130;5.428;2022-12-29T12:22:10;100498.38;;;10.28;84.62
73748;BME280;62056;52.130;5.428;2022-12-29T12:24:59;100502.81;;;10.19;85.14
73748;BME280;62056;52.130;5.428;2022-12-29T12:27:38;100500.94;;;10.20;85.52
73748;BME280;62056;52.130;5.428;2022-12-29T12:30:17;100505.16;;;10.21;85.29
73748;BME280;62056;52.130;5.428;2022-12-29T12:32:56;100514.59;;;10.27;85.04
73748;BME280;62056;52.130;5.428;2022-12-29T12:35:42;100505.31;;;10.29;85.12
73748;BME280;62056;52.130;5.428;2022-12-29T12:44:40;100501.19;;;10.37;84.55
73748;BME280;62056;52.130;5.428;2022-12-29T12:47:27;100504.84;;;10.41;84.91
73748;BME280;62056;52.130;5.428;2022-12-29T12:50:15;100515.88;;;10.48;84.62
73748;BME280;62056;52.130;5.428;2022-12-29T12:53:10;100512.34;;;10.53;84.43
73748;BME280;62056;52.130;5.428;2022-12-29T12:56:25;100514.50;;;10.51;84.28
73748;BME280;62056;52.130;5.428;2022-12-29T12:59:10;100530.47;;;10.51;82.99
73748;BME280;62056;52.130;5.428;2022-12-29T13:01:50;100519.22;;;10.54;83.71
73748;BME280;62056;52.130;5.428;2022-12-29T13:04:48;100522.88;;;10.58;83.57
73748;BME280;62056;52.130;5.428;2022-12-29T13:07:59;100522.31;;;10.61;82.97
73748;BME280;62056;52.130;5.428;2022-12-29T13:10:58;100528.13;;;10.63;82.96
73748;BME280;62056;52.130;5.428;2022-12-29T13:17:16;100531.97;;;10.71;83.21
73748;BME280;62056;52.130;5.428;2022-12-29T13:19:54;100539.16;;;10.70;82.94
73748;BME280;62056;52.130;5.428;2022-12-29T13:22:34;100533.47;;;10.77;83.13
73748;BME280;62056;52.130;5.428;2022-12-29T13:25:20;100543.78;;;10.79;83.05
73748;BME280;62056;52.130;5.428;2022-12-29T13:31:56;100543.00;;;10.78;82.10
73748;BME280;62056;52.130;5.428;2022-12-29T13:34:43;100555.53;;;10.78;82.52
73748;BME280;62056;52.130;5.428;2022-12-29T13:37:18;100555.03;;;10.76;82.33
73748;BME280;62056;52.130;5.428;2022-12-29T13:39:52;100548.94;;;10.75;82.16
73748;BME280;62056;52.130;5.428;2022-12-29T13:42:22;100562.91;;;10.81;82.45
73748;BME280;62056;52.130;5.428;2022-12-29T13:45:00;100562.91;;;10.81;82.33
73748;BME280;62056;52.130;5.428;2022-12-29T13:50:04;100557.50;;;10.86;82.16
73748;BME280;62056;52.130;5.428;2022-12-29T13:55:35;100551.69;;;10.84;81.23
73748;BME280;62056;52.130;5.428;2022-12-29T13:58:09;100560.94;;;10.86;81.58
73748;BME280;62056;52.130;5.428;2022-12-29T14:00:51;100551.88;;;10.87;81.45
73748;BME280;62056;52.130;5.428;2022-12-29T14:03:32;100541.53;;;10.86;80.43
73748;BME280;62056;52.130;5.428;2022-12-29T14:06:18;100555.03;;;10.89;81.69
73748;BME280;62056;52.130;5.428;2022-12-29T14:08:47;100555.91;;;10.85;81.28
73748;BME280;62056;52.130;5.428;2022-12-29T14:11:16;100559.84;;;10.87;81.42
73748;BME280;62056;52.130;5.428;2022-12-29T14:13:46;100573.97;;;10.88;81.32
73748;BME280;62056;52.130;5.428;2022-12-29T14:16:32;100572.66;;;10.85;81.09
73748;BME280;62056;52.130;5.428;2022-12-29T14:19:12;100580.84;;;10.75;79.74
73748;BME280;62056;52.130;5.428;2022-12-29T14:21:41;100589.59;;;10.76;81.47
73748;BME280;62056;52.130;5.428;2022-12-29T14:24:48;100598.81;;;10.64;81.47